createdAt,value
2019-04-14T00:02:20.677Z,4.80
2019-04-14T00:04:48.905Z,4.80
2019-04-14T00:07:16.577Z,4.70
2019-04-14T00:09:43.216Z,4.70
2019-04-14T00:12:11.739Z,4.80
2019-04-14T00:14:38.340Z,4.70
2019-04-14T00:17:08.743Z,4.80
2019-04-14T00:19:34.875Z,4.70
2019-04-14T00:22:01.205Z,4.70
2019-04-14T00:24:27.370Z,4.70
2019-04-14T00:26:53.534Z,4.70
2019-04-14T00:29:19.786Z,4.60
2019-04-14T00:31:45.964Z,4.60
2019-04-14T00:34:18.066Z,4.60
2019-04-14T00:36:46.262Z,4.50
2019-04-14T00:39:20.494Z,4.50
2019-04-14T00:42:06.667Z,4.50
2019-04-14T00:44:41.083Z,4.50
2019-04-14T00:47:09.329Z,4.50
2019-04-14T00:49:35.523Z,4.50
2019-04-14T00:52:03.655Z,4.50
2019-04-14T00:54:30.452Z,4.40
2019-04-14T00:56:56.924Z,4.40
2019-04-14T00:59:23.076Z,4.50
2019-04-14T01:01:50.539Z,4.50
2019-04-14T01:04:16.698Z,4.50
2019-04-14T01:06:42.881Z,4.60
2019-04-14T01:09:10.928Z,4.60
2019-04-14T01:11:37.858Z,4.50
2019-04-14T01:14:04.149Z,4.50
2019-04-14T01:16:30.299Z,4.50
2019-04-14T01:18:56.453Z,4.40
2019-04-14T01:21:22.612Z,4.40
2019-04-14T01:23:48.779Z,4.40
2019-04-14T01:26:16.007Z,4.40
2019-04-14T01:28:42.275Z,4.40
2019-04-14T01:31:09.744Z,4.40
2019-04-14T01:33:36.001Z,4.50
2019-04-14T01:36:02.261Z,4.40
2019-04-14T01:38:29.633Z,4.30
2019-04-14T01:40:55.938Z,4.30
2019-04-14T01:43:23.445Z,4.40
2019-04-14T01:46:03.973Z,4.40
2019-04-14T01:48:17.766Z,4.30
2019-04-14T01:50:49.579Z,4.30
2019-04-14T01:53:20.565Z,4.30
2019-04-14T01:55:48.893Z,4.30
2019-04-14T01:58:16.946Z,4.20
2019-04-14T02:00:45.023Z,4.30
2019-04-14T02:03:11.184Z,4.20
2019-04-14T02:05:38.331Z,4.20
2019-04-14T02:08:04.848Z,4.30
2019-04-14T02:10:31.009Z,4.20
2019-04-14T02:12:58.256Z,4.20
2019-04-14T02:15:24.669Z,4.30
2019-04-14T02:17:50.813Z,4.20
2019-04-14T02:20:16.965Z,4.20
2019-04-14T02:22:44.110Z,4.10
2019-04-14T02:25:10.303Z,4.10
2019-04-14T02:27:36.471Z,4.10
2019-04-14T02:30:08.941Z,4.10
2019-04-14T02:33:05.467Z,4.00
2019-04-14T02:35:36.821Z,4.00
2019-04-14T02:38:05.606Z,4.00
2019-04-14T02:40:34.792Z,4.00
2019-04-14T02:45:32.305Z,4.00
2019-04-14T02:50:17.731Z,4.00
2019-04-14T02:52:53.686Z,4.00
2019-04-14T02:55:08.584Z,4.00
2019-04-14T02:57:38.382Z,4.00
2019-04-14T03:00:17.105Z,4.00
2019-04-14T03:02:36.688Z,4.00
2019-04-14T03:05:09.694Z,4.00
2019-04-14T03:10:20.979Z,4.00
2019-04-14T03:12:31.649Z,4.00
2019-04-14T03:17:47.284Z,4.00
2019-04-14T03:22:55.867Z,3.90
2019-04-14T03:25:22.555Z,3.80
2019-04-14T03:27:59.225Z,3.80
2019-04-14T03:33:32.518Z,3.80
2019-04-14T03:37:59.589Z,3.80
2019-04-14T03:40:28.611Z,3.80
2019-04-14T03:42:55.629Z,3.80
2019-04-14T03:45:29.957Z,3.80
2019-04-14T03:48:02.086Z,3.70
2019-04-14T03:50:26.253Z,3.70
2019-04-14T03:52:49.826Z,3.70
2019-04-14T03:55:09.749Z,3.70
2019-04-14T03:57:17.195Z,3.70
2019-04-14T03:59:43.554Z,3.70
2019-04-14T04:02:09.784Z,3.70
2019-04-14T04:04:36.031Z,3.70
2019-04-14T04:07:02.176Z,3.70
2019-04-14T04:09:30.261Z,3.70
2019-04-14T04:11:56.586Z,3.70
2019-04-14T04:14:22.756Z,3.60
2019-04-14T04:16:50.870Z,3.70
2019-04-14T04:19:22.946Z,3.70
2019-04-14T04:21:55.034Z,3.60
2019-04-14T04:24:23.548Z,3.60
2019-04-14T04:26:51.825Z,3.60
2019-04-14T04:29:20.149Z,3.60
2019-04-14T04:31:54.751Z,3.60
2019-04-14T04:34:35.794Z,3.60
2019-04-14T04:37:10.360Z,3.70
2019-04-14T04:39:39.691Z,3.70
2019-04-14T04:42:07.026Z,3.60
2019-04-14T04:44:33.503Z,3.60
2019-04-14T04:46:59.745Z,3.60
2019-04-14T04:49:28.967Z,3.70
2019-04-14T04:51:55.036Z,3.60
2019-04-14T04:54:21.318Z,3.70
2019-04-14T04:56:47.476Z,3.60
2019-04-14T04:59:14.660Z,3.70
2019-04-14T05:01:41.118Z,3.70
2019-04-14T05:04:07.263Z,3.70
2019-04-14T05:06:54.799Z,3.80
2019-04-14T05:09:38.736Z,3.70
2019-04-14T05:12:13.468Z,3.70
2019-04-14T05:14:45.508Z,3.70
2019-04-14T05:17:14.720Z,3.80
2019-04-14T05:19:42.141Z,3.90
2019-04-14T05:22:09.312Z,4.00
2019-04-14T05:24:35.695Z,4.00
2019-04-14T05:27:01.840Z,4.00
2019-04-14T05:29:28.035Z,4.10
2019-04-14T05:31:55.426Z,4.00
2019-04-14T05:34:21.734Z,4.00
2019-04-14T05:36:52.134Z,3.90
2019-04-14T05:39:18.399Z,4.00
2019-04-14T05:41:57.118Z,4.20
2019-04-14T05:44:12.620Z,4.30
2019-04-14T05:46:38.891Z,4.30
2019-04-14T05:49:06.274Z,4.40
2019-04-14T05:51:32.739Z,4.30
2019-04-14T05:53:59.040Z,4.50
2019-04-14T05:56:25.285Z,4.50
2019-04-14T05:58:51.558Z,4.50
2019-04-14T06:01:18.172Z,4.50
2019-04-14T06:03:45.378Z,4.50
2019-04-14T06:06:11.720Z,4.60
2019-04-14T06:08:37.895Z,4.60
2019-04-14T06:11:04.051Z,4.60
2019-04-14T06:13:30.309Z,4.70
2019-04-14T06:15:56.516Z,4.70
2019-04-14T06:18:22.750Z,4.90
2019-04-14T06:20:48.920Z,5.00
2019-04-14T06:23:15.100Z,4.70
2019-04-14T06:25:41.249Z,4.50
2019-04-14T06:28:07.448Z,4.40
2019-04-14T06:30:47.163Z,4.50
2019-04-14T06:33:30.229Z,4.60
2019-04-14T06:36:01.018Z,4.80
2019-04-14T06:38:29.086Z,5.20
2019-04-14T06:40:57.159Z,5.40
2019-04-14T06:43:23.415Z,5.50
2019-04-14T06:45:49.576Z,5.70
2019-04-14T06:48:15.723Z,5.80
2019-04-14T06:50:42.007Z,5.70
2019-04-14T06:53:08.186Z,6.40
2019-04-14T06:55:35.572Z,7.00
2019-04-14T06:58:01.728Z,7.60
2019-04-14T07:00:28.020Z,7.90
2019-04-14T07:02:54.169Z,8.70
2019-04-14T07:05:20.523Z,9.90
2019-04-14T07:07:56.431Z,10.00
2019-04-14T07:10:16.728Z,9.70
2019-04-14T07:12:43.246Z,9.70
2019-04-14T07:15:09.776Z,9.70
2019-04-14T07:17:36.019Z,9.40
2019-04-14T07:20:05.085Z,9.50
2019-04-14T07:22:31.591Z,9.60
2019-04-14T07:24:59.015Z,10.50
2019-04-14T07:27:25.290Z,11.10
2019-04-14T07:30:03.113Z,11.60
2019-04-14T07:32:46.176Z,11.90
2019-04-14T07:35:26.248Z,10.80
2019-04-14T07:38:00.304Z,11.30
2019-04-14T07:40:28.350Z,12.10
2019-04-14T07:42:56.426Z,12.70
2019-04-14T07:45:27.224Z,12.20
2019-04-14T07:47:58.068Z,13.20
2019-04-14T07:50:42.580Z,13.20
2019-04-14T07:53:16.533Z,13.20
2019-04-14T07:55:59.610Z,13.60
2019-04-14T07:58:27.680Z,12.70
2019-04-14T08:00:58.746Z,12.30
2019-04-14T08:03:29.635Z,12.00
2019-04-14T08:05:56.820Z,11.00
2019-04-14T08:08:23.044Z,10.80
2019-04-14T08:10:49.203Z,10.50
2019-04-14T08:13:15.379Z,10.50
2019-04-14T08:15:41.581Z,10.50
2019-04-14T08:18:07.748Z,10.80
2019-04-14T08:20:33.913Z,11.10
2019-04-14T08:23:00.107Z,10.40
2019-04-14T08:25:26.296Z,9.70
2019-04-14T08:27:52.444Z,9.90
2019-04-14T08:30:18.623Z,10.20
2019-04-14T08:32:44.788Z,10.40
2019-04-14T08:35:12.117Z,9.90
2019-04-14T08:37:39.279Z,10.10
2019-04-14T08:40:05.738Z,9.80
2019-04-14T08:42:36.566Z,9.80
2019-04-14T08:45:10.024Z,9.40
2019-04-14T08:47:40.714Z,9.90
2019-04-14T08:50:09.061Z,10.30
2019-04-14T08:52:53.461Z,11.90
2019-04-14T08:55:21.534Z,11.50
2019-04-14T08:57:55.500Z,10.30
2019-04-14T09:00:41.516Z,9.20
2019-04-14T09:03:12.341Z,9.90
2019-04-14T09:05:40.394Z,9.60
2019-04-14T09:08:08.505Z,9.30
2019-04-14T09:10:39.209Z,9.20
2019-04-14T09:13:05.409Z,9.40
2019-04-14T09:15:31.555Z,9.10
2019-04-14T09:17:57.770Z,8.80
2019-04-14T09:20:23.941Z,9.10
2019-04-14T09:22:50.127Z,9.60
2019-04-14T09:25:16.387Z,9.70
2019-04-14T09:27:42.546Z,10.10
2019-04-14T09:30:09.248Z,11.20
2019-04-14T09:32:35.473Z,11.00
2019-04-14T09:35:01.747Z,10.40
2019-04-14T09:37:27.906Z,10.80
2019-04-14T09:39:54.063Z,11.20
2019-04-14T09:42:20.212Z,11.40
2019-04-14T09:44:46.415Z,11.00
2019-04-14T09:47:12.578Z,10.60
2019-04-14T09:49:38.745Z,11.60
2019-04-14T09:52:04.880Z,12.30
2019-04-14T09:54:31.755Z,12.40
2019-04-14T09:56:58.020Z,11.10
2019-04-14T09:59:24.200Z,10.80
2019-04-14T10:01:50.351Z,11.00
2019-04-14T10:04:16.652Z,10.90
2019-04-14T10:06:42.823Z,11.50
2019-04-14T10:09:09.077Z,12.30
2019-04-14T10:11:47.684Z,12.10
2019-04-14T10:14:03.396Z,12.20
2019-04-14T10:16:29.622Z,12.30
2019-04-14T10:18:55.771Z,12.10
2019-04-14T10:21:21.948Z,11.70
2019-04-14T10:23:48.091Z,11.80
2019-04-14T10:26:14.296Z,12.20
2019-04-14T10:28:40.444Z,11.80
2019-04-14T10:31:06.636Z,11.10
2019-04-14T10:33:32.810Z,11.00
2019-04-14T10:35:58.966Z,11.00
2019-04-14T10:38:25.236Z,10.70
2019-04-14T10:40:51.430Z,10.60
2019-04-14T10:43:17.668Z,10.70
2019-04-14T10:45:43.817Z,10.90
2019-04-14T10:48:10.019Z,11.20
2019-04-14T10:50:36.239Z,11.20
2019-04-14T10:53:02.561Z,11.30
2019-04-14T10:55:28.793Z,11.40
2019-04-14T10:57:55.127Z,11.50
2019-04-14T11:00:21.302Z,11.20
2019-04-14T11:02:47.486Z,10.70
2019-04-14T11:05:13.650Z,10.20
2019-04-14T11:07:39.875Z,10.40
2019-04-14T11:10:07.954Z,9.70
2019-04-14T11:12:34.102Z,9.60
2019-04-14T11:15:00.279Z,9.40
2019-04-14T11:17:26.509Z,9.70
2019-04-14T11:19:52.697Z,9.20
2019-04-14T11:22:18.920Z,9.10
2019-04-14T11:24:45.161Z,9.10
2019-04-14T11:27:11.432Z,9.30
2019-04-14T11:29:37.695Z,9.40
2019-04-14T11:32:08.615Z,9.00
2019-04-14T11:34:36.827Z,9.00
2019-04-14T11:37:07.447Z,8.90
2019-04-14T11:39:33.672Z,9.30
2019-04-14T11:41:59.932Z,9.10
2019-04-14T11:44:27.160Z,9.10
2019-04-14T11:46:53.428Z,9.00
2019-04-14T11:49:19.741Z,8.80
2019-04-14T11:51:55.230Z,8.80
2019-04-14T11:54:15.951Z,9.00
2019-04-14T11:56:42.187Z,8.90
2019-04-14T11:59:08.430Z,8.80
2019-04-14T12:01:40.585Z,8.80
2019-04-14T12:04:20.528Z,9.00
2019-04-14T12:06:57.444Z,9.40
2019-04-14T12:09:25.594Z,9.60
2019-04-14T12:11:51.857Z,9.60
2019-04-14T12:14:20.497Z,9.50
2019-04-14T12:16:48.504Z,9.70
2019-04-14T12:19:14.954Z,9.80
2019-04-14T12:21:41.200Z,9.90
2019-04-14T12:24:07.476Z,10.10
2019-04-14T12:26:33.626Z,10.00
2019-04-14T12:29:01.996Z,10.20
2019-04-14T12:31:29.045Z,10.50
2019-04-14T12:33:55.255Z,10.40
2019-04-14T12:36:21.420Z,10.50
2019-04-14T12:38:47.572Z,10.60
2019-04-14T12:41:15.776Z,10.20
2019-04-14T12:43:44.407Z,10.10
2019-04-14T12:46:15.314Z,10.60
2019-04-14T12:48:43.452Z,10.60
2019-04-14T12:51:11.528Z,10.50
2019-04-14T12:53:37.768Z,10.90
2019-04-14T12:56:04.100Z,10.60
2019-04-14T12:58:34.679Z,10.40
2019-04-14T13:01:11.635Z,10.40
2019-04-14T13:03:41.605Z,10.80
2019-04-14T13:06:06.952Z,10.30
2019-04-14T13:08:33.651Z,10.20
2019-04-14T13:11:00.005Z,10.30
2019-04-14T13:13:26.363Z,10.30
2019-04-14T13:15:52.597Z,10.10
2019-04-14T13:18:18.813Z,10.40
2019-04-14T13:20:45.008Z,10.10
2019-04-14T13:23:11.179Z,9.50
2019-04-14T13:25:37.490Z,9.60
2019-04-14T13:28:03.732Z,9.50
2019-04-14T13:30:32.240Z,9.60
2019-04-14T13:32:58.476Z,9.70
2019-04-14T13:35:24.683Z,9.80
2019-04-14T13:37:50.862Z,9.80
2019-04-14T13:40:17.281Z,9.70
2019-04-14T13:42:43.489Z,10.00
2019-04-14T13:45:10.028Z,10.00
2019-04-14T13:47:36.191Z,10.20
2019-04-14T13:50:05.111Z,9.70
2019-04-14T13:52:46.142Z,9.70
2019-04-14T13:55:04.043Z,9.60
2019-04-14T13:57:30.295Z,9.50
2019-04-14T13:59:56.455Z,9.70
2019-04-14T14:02:22.604Z,9.70
2019-04-14T14:04:48.771Z,10.00
2019-04-14T14:07:15.131Z,10.30
2019-04-14T14:09:41.480Z,10.50
2019-04-14T14:12:09.641Z,10.10
2019-04-14T14:14:49.590Z,10.00
2019-04-14T14:17:29.620Z,9.90
2019-04-14T14:19:57.788Z,10.00
2019-04-14T14:22:35.063Z,9.80
2019-04-14T14:25:05.839Z,9.80
2019-04-14T14:27:32.084Z,10.00
2019-04-14T14:29:58.313Z,10.00
2019-04-14T14:32:26.369Z,10.10
2019-04-14T14:34:53.551Z,9.90
2019-04-14T14:37:19.881Z,10.10
2019-04-14T14:39:48.363Z,10.10
2019-04-14T14:42:14.537Z,10.30
2019-04-14T14:44:42.620Z,10.30
2019-04-14T14:47:13.217Z,10.70
2019-04-14T14:49:57.997Z,10.70
2019-04-14T14:52:24.168Z,10.30
2019-04-14T14:54:50.314Z,10.10
2019-04-14T14:57:17.543Z,10.10
2019-04-14T14:59:43.708Z,10.50
2019-04-14T15:02:09.876Z,10.40
2019-04-14T15:04:36.038Z,10.70
2019-04-14T15:07:02.344Z,10.70
2019-04-14T15:09:28.491Z,10.50
2019-04-14T15:11:54.762Z,10.40
2019-04-14T15:14:21.044Z,10.40
2019-04-14T15:16:48.843Z,10.50
2019-04-14T15:19:15.024Z,10.00
2019-04-14T15:21:41.212Z,10.10
2019-04-14T15:24:07.460Z,9.70
2019-04-14T15:26:33.633Z,9.80
2019-04-14T15:28:59.892Z,9.90
2019-04-14T15:31:28.219Z,9.90
2019-04-14T15:33:55.385Z,9.70
2019-04-14T15:36:21.530Z,9.80
2019-04-14T15:38:47.755Z,9.90
2019-04-14T15:41:15.387Z,10.10
2019-04-14T15:43:41.703Z,9.70
2019-04-14T15:46:07.851Z,9.50
2019-04-14T15:48:34.017Z,9.30
2019-04-14T15:51:00.200Z,9.30
2019-04-14T15:53:37.253Z,9.10
2019-04-14T15:55:54.675Z,9.20
2019-04-14T15:58:28.732Z,9.30
2019-04-14T16:01:13.209Z,9.60
2019-04-14T16:03:41.259Z,9.90
2019-04-14T16:06:12.345Z,9.70
2019-04-14T16:08:40.404Z,9.70
2019-04-14T16:11:08.468Z,9.60
2019-04-14T16:13:36.524Z,9.70
2019-04-14T16:16:04.892Z,9.70
2019-04-14T16:18:44.820Z,9.70
2019-04-14T16:21:11.217Z,9.60
2019-04-14T16:23:49.729Z,9.30
2019-04-14T16:26:07.655Z,9.40
2019-04-14T16:28:47.993Z,9.50
2019-04-14T16:31:32.930Z,9.20
2019-04-14T16:34:01.247Z,9.00
2019-04-14T16:36:27.551Z,8.90
2019-04-14T16:38:53.814Z,9.10
2019-04-14T16:41:20.968Z,8.90
2019-04-14T16:43:48.114Z,8.80
2019-04-14T16:46:14.273Z,8.90
2019-04-14T16:48:40.439Z,8.80
2019-04-14T16:51:08.608Z,8.80
2019-04-14T16:53:38.666Z,8.80
2019-04-14T16:56:06.848Z,8.80
2019-04-14T16:58:37.504Z,8.80
2019-04-14T17:01:05.971Z,8.90
2019-04-14T17:03:32.789Z,8.80
2019-04-14T17:05:58.979Z,8.80
2019-04-14T17:08:25.221Z,8.60
2019-04-14T17:10:51.455Z,8.50
2019-04-14T17:13:17.988Z,8.40
2019-04-14T17:15:46.120Z,8.50
2019-04-14T17:18:15.231Z,8.50
2019-04-14T17:20:51.915Z,8.50
2019-04-14T17:23:36.970Z,8.30
2019-04-14T17:26:11.986Z,8.30
2019-04-14T17:28:43.895Z,8.20
2019-04-14T17:31:18.713Z,8.20
2019-04-14T17:33:46.768Z,8.10
2019-04-14T17:36:31.048Z,8.00
2019-04-14T17:39:00.109Z,8.10
2019-04-14T17:41:34.051Z,8.20
2019-04-14T17:44:02.143Z,8.20
2019-04-14T17:46:36.168Z,8.20
2019-04-14T17:49:22.226Z,8.10
2019-04-14T17:51:50.485Z,8.00
2019-04-14T17:54:29.152Z,8.00
2019-04-14T17:57:07.918Z,8.00
2019-04-14T17:59:36.017Z,7.90
2019-04-14T18:02:12.980Z,7.80
2019-04-14T18:04:44.211Z,7.80
2019-04-14T18:07:15.023Z,7.80
2019-04-14T18:09:55.240Z,7.90
2019-04-14T18:12:32.163Z,7.90
2019-04-14T18:15:05.993Z,7.80
2019-04-14T18:17:39.564Z,7.80
2019-04-14T18:20:07.581Z,7.80
2019-04-14T18:22:33.744Z,7.70
2019-04-14T18:24:59.914Z,7.70
2019-04-14T18:27:26.179Z,7.70
2019-04-14T18:29:59.880Z,7.70
2019-04-14T18:32:30.698Z,7.70
2019-04-14T18:35:07.548Z,7.70
2019-04-14T18:37:50.522Z,7.60
2019-04-14T18:40:27.523Z,7.70
2019-04-14T18:42:58.283Z,7.70
2019-04-14T18:45:26.327Z,7.70
2019-04-14T18:48:09.091Z,7.80
2019-04-14T18:50:45.691Z,7.90
2019-04-14T18:53:30.152Z,7.80
2019-04-14T18:56:04.107Z,7.80
2019-04-14T18:58:37.844Z,7.80
2019-04-14T19:01:05.889Z,7.80
2019-04-14T19:03:32.063Z,7.80
2019-04-14T19:05:59.257Z,7.80
2019-04-14T19:08:25.424Z,7.90
2019-04-14T19:11:12.577Z,7.90
2019-04-14T19:13:40.661Z,7.90
2019-04-14T19:16:14.570Z,7.90
2019-04-14T19:18:54.523Z,7.80
2019-04-14T19:21:22.625Z,7.80
2019-04-14T19:23:48.769Z,7.80
2019-04-14T19:26:14.968Z,7.80
2019-04-14T19:28:41.181Z,7.90
2019-04-14T19:31:07.321Z,8.00
2019-04-14T19:33:33.538Z,8.00
2019-04-14T19:35:59.676Z,8.00
2019-04-14T19:38:25.886Z,8.00
2019-04-14T19:40:52.033Z,8.00
2019-04-14T19:43:23.842Z,7.90
2019-04-14T19:45:46.287Z,7.90
2019-04-14T19:48:12.572Z,7.80
2019-04-14T19:50:38.719Z,7.80
2019-04-14T19:53:05.876Z,8.00
2019-04-14T19:55:32.035Z,8.00
2019-04-14T19:58:00.122Z,8.00
2019-04-14T20:00:26.332Z,8.00
2019-04-14T20:02:52.540Z,8.00
2019-04-14T20:05:18.698Z,7.90
2019-04-14T20:07:44.916Z,7.80
2019-04-14T20:10:12.760Z,7.90
2019-04-14T20:12:38.915Z,7.80
2019-04-14T20:15:05.680Z,7.80
2019-04-14T20:17:36.537Z,7.80
2019-04-14T20:20:16.080Z,7.80
2019-04-14T20:22:46.926Z,7.80
2019-04-14T20:25:17.894Z,7.70
2019-04-14T20:27:51.820Z,7.60
2019-04-14T20:30:19.928Z,7.60
2019-04-14T20:32:47.231Z,7.60
2019-04-14T20:35:14.140Z,7.60
2019-04-14T20:37:40.293Z,7.60
2019-04-14T20:40:07.045Z,7.50
2019-04-14T20:42:33.226Z,7.50
2019-04-14T20:44:59.504Z,7.40
2019-04-14T20:47:25.659Z,7.30
2019-04-14T20:49:51.823Z,7.30
2019-04-14T20:52:17.996Z,7.30
2019-04-14T20:54:44.173Z,7.30
2019-04-14T20:57:10.320Z,7.20
2019-04-14T20:59:36.540Z,7.20
2019-04-14T21:02:07.349Z,7.20
2019-04-14T21:04:38.216Z,7.10
2019-04-14T21:07:15.136Z,7.10
2019-04-14T21:09:45.952Z,7.20
2019-04-14T21:12:14.066Z,7.10
2019-04-14T21:14:44.667Z,7.10
2019-04-14T21:17:16.943Z,7.10
2019-04-14T21:20:01.260Z,7.10
2019-04-14T21:22:45.723Z,7.00
2019-04-14T21:25:30.283Z,6.90
2019-04-14T21:27:58.352Z,6.90
2019-04-14T21:30:44.168Z,6.90
2019-04-14T21:33:12.301Z,7.00
2019-04-14T21:35:49.133Z,7.00
2019-04-14T21:38:17.206Z,6.90
2019-04-14T21:40:51.187Z,6.80
2019-04-14T21:43:17.352Z,6.90
2019-04-14T21:45:43.500Z,6.80
2019-04-14T21:48:09.704Z,6.80
2019-04-14T21:50:36.660Z,6.70
2019-04-14T21:53:02.828Z,6.60
2019-04-14T21:55:28.978Z,6.60
2019-04-14T21:58:04.086Z,6.50
2019-04-14T22:01:05.708Z,6.50
2019-04-14T22:03:33.988Z,6.60
2019-04-14T22:06:04.796Z,6.50
2019-04-14T22:08:35.375Z,6.40
2019-04-14T22:11:09.279Z,6.40
2019-04-14T22:13:35.469Z,6.40
2019-04-14T22:16:06.018Z,6.40
2019-04-14T22:18:29.932Z,6.40
2019-04-14T22:20:56.104Z,6.30
2019-04-14T22:23:22.262Z,6.30
2019-04-14T22:25:48.436Z,6.30
2019-04-14T22:28:14.587Z,6.30
2019-04-14T22:30:42.240Z,6.20
2019-04-14T22:33:08.417Z,6.20
2019-04-14T22:35:34.576Z,6.30
2019-04-14T22:38:00.719Z,6.30
2019-04-14T22:40:26.996Z,6.30
2019-04-14T22:42:53.147Z,6.30
2019-04-14T22:45:19.328Z,6.40
2019-04-14T22:47:45.471Z,6.40
2019-04-14T22:50:11.651Z,6.40
2019-04-14T22:52:37.927Z,6.30
2019-04-14T22:55:06.104Z,6.20
2019-04-14T22:57:32.311Z,6.10
2019-04-14T22:59:58.528Z,6.10
2019-04-14T23:02:32.139Z,6.00
2019-04-14T23:05:12.015Z,6.00
2019-04-14T23:07:51.957Z,5.90
2019-04-14T23:10:32.028Z,5.90
2019-04-14T23:13:02.984Z,5.90
2019-04-14T23:15:47.428Z,5.80
2019-04-14T23:18:18.262Z,5.80
2019-04-14T23:20:55.027Z,5.80
2019-04-14T23:23:28.975Z,5.80
2019-04-14T23:25:55.127Z,5.80
2019-04-14T23:28:21.401Z,5.70
2019-04-14T23:30:47.595Z,5.60
2019-04-14T23:33:13.764Z,5.60
2019-04-14T23:35:40.151Z,5.60
2019-04-14T23:38:06.347Z,5.60
2019-04-14T23:40:32.508Z,5.60
2019-04-14T23:42:59.659Z,5.70
2019-04-14T23:45:25.820Z,5.60
2019-04-14T23:47:51.956Z,5.70
2019-04-14T23:50:18.240Z,5.60
2019-04-14T23:52:44.505Z,5.70
2019-04-14T23:55:10.765Z,5.70
2019-04-14T23:57:37.007Z,5.80
